Impacts TAF Board INFO
FOR SITUATIONAL AWARENESS. NOT TO BE USED FOR FLIGHT PLANNING PURPOSES.
IDs:

KDFW - Dallas-Ft Worth Intl, TX, US

Issued at 2320 UTC 17 Oct 2017
Updated at 0155 UTC 18 Oct 2017
Potential Impact None Slight Moderate High
Time0153Z 18/02Z 18/03Z 18/04Z 18/05Z 18/06Z 18/07Z 18/08Z 18/09Z 18/10Z 18/11Z 18/12Z 18/13Z 18/14Z>>
Type OBS PRVL PRVL PRVL PRVL PRVL PRVL PRVL PRVL PRVL PRVL PRVL PRVL PRVL
VIS 10 >6 >6 >6 >6 >6 >6 >6 >6 >6 >6 >6 >6 >6
CIG -- -- -- -- -- -- -- -- -- -- -- -- -- --
Cover CLR SKC SKC SKC SKC SKC SKC SKC SKC SKC SKC SKC SKC SKC
FltCat VFR VFR VFR VFR VFR VFR VFR VFR VFR VFR VFR VFR VFR VFR
WX -- -- -- -- -- -- -- -- -- -- -- -- -- --
WDir 150 160 160 160 160 160 160 160 160 160 160 160 160 160
WSpd 5 6 6 6 6 6 6 6 6 6 6 6 6 6
WGst -- -- -- -- -- -- -- -- -- -- -- -- -- --

Raw TAF
KDFW 172320Z 1800/1906 16006KT P6SM SKC

Raw METAR
KDFW 180153Z 15005KT 10SM CLR 19/06 A3013 RMK AO2 SLP200 T01890056
KDFW 180053Z 14006KT 10SM FEW300 18/06 A3013 RMK AO2 SLP199 T01830061
KDFW 172353Z COR 15006KT 10SM FEW300 21/05 A3013 RMK AO2 SLP198 T02060050 10250 20206 56010
KDFW 172253Z 14007KT 10SM CLR 24/04 A3013 RMK AO2 SLP198 T02390044

METAR Board
Radar Display
Forecast Discussion

FOR SITUATIONAL AWARENESS. NOT TO BE USED FOR FLIGHT PLANNING PURPOSES.